createdAt,value
2022-10-15T00:01:37.206Z,91.60
2022-10-15T00:04:39.206Z,91.40
2022-10-15T00:07:41.403Z,91.40
2022-10-15T00:10:43.579Z,91.60
2022-10-15T00:13:46.209Z,91.50
2022-10-15T00:16:48.231Z,91.40
2022-10-15T00:19:50.107Z,91.60
2022-10-15T00:22:52.301Z,91.80
2022-10-15T00:26:05.339Z,91.70
2022-10-15T00:29:07.329Z,91.80
2022-10-15T00:32:09.544Z,91.90
2022-10-15T00:35:16.217Z,91.60
2022-10-15T00:38:18.135Z,92.10
2022-10-15T00:41:25.812Z,92.00
2022-10-15T00:44:27.682Z,92.00
2022-10-15T00:47:39.946Z,92.10
2022-10-15T00:50:41.868Z,92.00
2022-10-15T00:53:44.623Z,91.60
2022-10-15T00:56:50.552Z,92.10
2022-10-15T00:59:58.021Z,92.00
2022-10-15T01:03:00.095Z,92.20
2022-10-15T01:06:03.159Z,92.10
2022-10-15T01:09:06.275Z,92.00
2022-10-15T01:12:18.308Z,92.30
2022-10-15T01:15:33.578Z,92.30
2022-10-15T01:19:08.513Z,92.40
2022-10-15T01:22:13.694Z,92.50
2022-10-15T01:25:33.475Z,92.20
2022-10-15T01:28:54.140Z,92.10
2022-10-15T01:32:19.261Z,92.40
2022-10-15T01:35:47.208Z,92.20
2022-10-15T01:39:17.505Z,92.60
2022-10-15T01:42:33.329Z,92.60
2022-10-15T01:45:42.976Z,92.40
2022-10-15T01:48:51.071Z,92.40
2022-10-15T01:51:55.891Z,92.10
2022-10-15T01:55:00.484Z,92.20
2022-10-15T01:58:04.235Z,92.30
2022-10-15T02:01:06.348Z,92.10
2022-10-15T02:04:25.616Z,92.30
2022-10-15T02:07:53.800Z,92.70
2022-10-15T02:11:04.773Z,92.60
2022-10-15T02:14:15.893Z,92.60
2022-10-15T02:17:19.891Z,92.70
2022-10-15T02:20:28.990Z,92.40
2022-10-15T02:23:47.814Z,92.70
2022-10-15T02:26:54.394Z,92.60
2022-10-15T02:29:57.952Z,92.90
2022-10-15T02:33:00.374Z,92.60
2022-10-15T02:36:02.939Z,92.70
2022-10-15T02:39:08.620Z,92.70
2022-10-15T02:42:10.858Z,92.90
2022-10-15T02:45:12.739Z,92.50
2022-10-15T02:48:16.810Z,92.60
2022-10-15T02:51:18.851Z,92.60
2022-10-15T02:54:21.486Z,92.70
2022-10-15T02:57:23.614Z,92.50
2022-10-15T03:00:26.429Z,92.20
2022-10-15T03:03:28.578Z,92.50
2022-10-15T03:06:30.613Z,92.30
2022-10-15T03:09:32.663Z,92.40
2022-10-15T03:12:37.765Z,92.40
2022-10-15T03:15:40.887Z,92.50
2022-10-15T03:18:43.621Z,92.50
2022-10-15T03:21:46.483Z,92.80
2022-10-15T03:24:50.585Z,92.70
2022-10-15T03:27:58.427Z,92.70
2022-10-15T03:31:09.049Z,92.60
2022-10-15T03:34:11.420Z,92.40
2022-10-15T03:37:13.843Z,92.60
2022-10-15T03:40:15.971Z,92.60
2022-10-15T03:43:19.658Z,92.40
2022-10-15T03:46:21.861Z,92.60
2022-10-15T03:49:24.930Z,92.30
2022-10-15T03:52:28.563Z,92.00
2022-10-15T03:55:31.279Z,92.30
2022-10-15T03:58:33.812Z,92.00
2022-10-15T04:01:38.963Z,92.20
2022-10-15T04:04:41.143Z,92.10
2022-10-15T04:07:43.773Z,92.10
2022-10-15T04:10:51.204Z,92.10
2022-10-15T04:13:53.520Z,92.10
2022-10-15T04:16:56.740Z,91.70
2022-10-15T04:19:59.470Z,92.00
2022-10-15T04:23:04.712Z,92.30
2022-10-15T04:26:07.362Z,91.80
2022-10-15T04:29:09.317Z,91.90
2022-10-15T04:32:15.043Z,91.70
2022-10-15T04:35:17.592Z,91.70
2022-10-15T04:38:38.412Z,91.40
2022-10-15T04:41:40.419Z,91.50
2022-10-15T04:45:02.657Z,91.80
2022-10-15T04:48:04.754Z,91.70
2022-10-15T04:51:09.060Z,92.00
2022-10-15T04:54:38.234Z,91.90
2022-10-15T04:57:40.371Z,91.80
2022-10-15T05:00:42.788Z,92.00
2022-10-15T05:04:05.730Z,91.80
2022-10-15T05:07:08.941Z,91.30
2022-10-15T05:10:12.607Z,91.60
2022-10-15T05:13:14.525Z,91.30
2022-10-15T05:16:19.015Z,90.80
2022-10-15T05:19:21.205Z,91.10
2022-10-15T05:22:24.540Z,91.20
2022-10-15T05:25:31.693Z,91.00
2022-10-15T05:28:34.129Z,90.90
2022-10-15T05:31:38.668Z,90.70
2022-10-15T05:34:49.629Z,90.80
2022-10-15T05:37:51.777Z,90.70
2022-10-15T05:40:53.757Z,90.70
2022-10-15T05:43:59.288Z,90.70
2022-10-15T05:47:04.417Z,90.70
2022-10-15T05:50:11.027Z,90.50
2022-10-15T05:53:21.154Z,90.70
2022-10-15T05:56:27.998Z,90.50
2022-10-15T05:59:29.828Z,90.50
2022-10-15T06:02:31.905Z,90.50
2022-10-15T06:05:33.827Z,90.70
2022-10-15T06:08:39.154Z,90.80
2022-10-15T06:11:41.036Z,90.80
2022-10-15T06:14:44.829Z,90.90
2022-10-15T06:17:46.568Z,90.90
2022-10-15T06:20:54.551Z,90.90
2022-10-15T06:23:56.335Z,90.60
2022-10-15T06:26:58.829Z,90.70
2022-10-15T06:30:00.820Z,91.00
2022-10-15T06:33:02.826Z,90.70
2022-10-15T06:36:06.218Z,90.50
2022-10-15T06:39:08.169Z,90.40
2022-10-15T06:42:10.008Z,90.10
2022-10-15T06:45:19.440Z,90.70
2022-10-15T06:48:23.889Z,90.90
2022-10-15T06:51:25.699Z,90.40
2022-10-15T06:54:27.538Z,90.10
2022-10-15T06:57:29.428Z,90.20
2022-10-15T07:00:31.351Z,89.80
2022-10-15T07:03:33.301Z,89.90
2022-10-15T07:06:35.968Z,89.80
2022-10-15T07:09:37.817Z,90.10
2022-10-15T07:12:39.674Z,90.30
2022-10-15T07:15:41.488Z,90.80
2022-10-15T07:18:43.321Z,90.30
2022-10-15T07:21:45.137Z,90.50
2022-10-15T07:24:49.003Z,90.80
2022-10-15T07:27:51.223Z,91.00
2022-10-15T07:30:53.770Z,91.00
2022-10-15T07:33:55.920Z,90.70
2022-10-15T07:36:57.771Z,90.50
2022-10-15T07:39:59.779Z,90.80
2022-10-15T07:43:01.755Z,91.10
2022-10-15T07:46:06.282Z,90.90
2022-10-15T07:49:08.140Z,90.90
2022-10-15T07:52:10.038Z,90.90
2022-10-15T07:55:12.429Z,91.00
2022-10-15T07:58:14.321Z,90.90
2022-10-15T08:01:16.143Z,90.90
2022-10-15T08:04:18.503Z,90.80
2022-10-15T08:07:24.242Z,90.50
2022-10-15T08:10:26.324Z,90.90
2022-10-15T08:13:28.156Z,90.80
2022-10-15T08:16:30.439Z,90.90
2022-10-15T08:19:35.167Z,90.90
2022-10-15T08:22:37.095Z,91.20
2022-10-15T08:25:39.160Z,91.30
2022-10-15T08:28:40.961Z,91.10
2022-10-15T08:31:43.011Z,90.90
2022-10-15T08:34:45.066Z,91.30
2022-10-15T08:37:46.905Z,91.00
2022-10-15T08:40:50.549Z,91.00
2022-10-15T08:43:52.654Z,91.20
2022-10-15T08:47:17.255Z,90.80
2022-10-15T08:50:34.586Z,90.60
2022-10-15T08:53:39.897Z,90.70
2022-10-15T08:56:44.865Z,90.60
2022-10-15T08:59:51.739Z,90.60
2022-10-15T09:02:59.783Z,90.80
2022-10-15T09:06:07.666Z,90.30
2022-10-15T09:09:15.284Z,90.40
2022-10-15T09:12:37.376Z,90.40
2022-10-15T09:15:59.521Z,90.20
2022-10-15T09:19:02.683Z,90.00
2022-10-15T09:22:04.611Z,90.10
2022-10-15T09:25:16.738Z,90.00
2022-10-15T09:28:21.280Z,89.90
2022-10-15T09:31:25.146Z,89.50
2022-10-15T09:34:33.471Z,89.20
2022-10-15T09:37:53.945Z,89.30
2022-10-15T09:41:01.835Z,87.70
2022-10-15T09:44:06.979Z,87.40
2022-10-15T09:47:17.827Z,87.30
2022-10-15T09:50:19.966Z,86.80
2022-10-15T09:53:40.172Z,86.70
2022-10-15T09:56:47.972Z,85.50
2022-10-15T09:59:59.042Z,86.20
2022-10-15T10:03:06.314Z,86.00
2022-10-15T10:06:11.354Z,85.90
2022-10-15T10:09:40.657Z,85.90
2022-10-15T10:12:44.133Z,85.80
2022-10-15T10:15:46.393Z,84.80
2022-10-15T10:19:13.281Z,85.20
2022-10-15T10:22:19.249Z,84.70
2022-10-15T10:25:27.653Z,84.10
2022-10-15T10:28:57.110Z,83.80
2022-10-15T10:32:34.058Z,83.00
2022-10-15T10:35:45.962Z,83.30
2022-10-15T10:39:25.190Z,79.20
2022-10-15T10:42:32.991Z,78.70
2022-10-15T10:45:38.825Z,78.30
2022-10-15T10:48:45.381Z,76.20
2022-10-15T11:03:22.664Z,77.90
2022-10-15T11:06:58.872Z,78.60
2022-10-15T11:10:12.665Z,78.80
2022-10-15T11:13:31.322Z,78.50
2022-10-15T11:17:19.455Z,79.00
2022-10-15T11:20:46.169Z,79.20
2022-10-15T11:23:59.696Z,80.00
2022-10-15T11:27:26.521Z,79.90
2022-10-15T11:30:41.632Z,78.80
2022-10-15T11:33:55.599Z,80.50
2022-10-15T11:37:25.025Z,79.20
2022-10-15T11:40:41.030Z,78.80
2022-10-15T11:43:58.067Z,79.50
2022-10-15T11:46:59.884Z,77.90
2022-10-15T11:50:19.153Z,78.50
2022-10-15T11:53:42.646Z,78.90
2022-10-15T11:56:49.213Z,78.50
2022-10-15T12:00:00.670Z,78.30
2022-10-15T12:03:12.331Z,79.20
2022-10-15T12:06:21.206Z,79.40
2022-10-15T12:09:31.753Z,80.40
2022-10-15T12:12:58.623Z,81.30
2022-10-15T12:16:39.774Z,82.10
2022-10-15T12:20:12.031Z,81.80
2022-10-15T12:23:24.611Z,81.70
2022-10-15T12:26:30.072Z,81.50
2022-10-15T12:29:33.114Z,80.90
2022-10-15T12:32:44.193Z,82.00
2022-10-15T12:35:57.539Z,81.70
2022-10-15T12:39:16.015Z,81.30
2022-10-15T12:42:35.759Z,81.50
2022-10-15T12:45:59.416Z,82.30
2022-10-15T12:49:27.437Z,82.90
2022-10-15T12:52:48.094Z,83.50
2022-10-15T12:56:09.868Z,84.70
2022-10-15T12:59:44.063Z,84.20
2022-10-15T13:02:48.063Z,84.40
2022-10-15T13:05:54.131Z,83.60
2022-10-15T13:09:11.688Z,84.10
2022-10-15T13:12:25.494Z,83.90
2022-10-15T13:15:29.611Z,83.20
2022-10-15T13:18:31.821Z,83.40
2022-10-15T13:21:51.602Z,83.90
2022-10-15T13:24:53.867Z,83.70
2022-10-15T13:27:55.786Z,85.00
2022-10-15T13:30:58.572Z,85.20
2022-10-15T13:34:25.239Z,85.80
2022-10-15T13:37:32.555Z,86.20
2022-10-15T13:40:34.727Z,86.50
2022-10-15T13:43:36.472Z,87.10
2022-10-15T13:46:38.492Z,87.80
2022-10-15T13:49:40.355Z,87.70
2022-10-15T13:52:49.503Z,88.40
2022-10-15T13:55:53.952Z,88.50
2022-10-15T13:58:56.597Z,88.70
2022-10-15T14:02:02.792Z,88.60
2022-10-15T14:05:17.211Z,89.00
2022-10-15T14:08:37.865Z,89.20
2022-10-15T14:11:39.963Z,88.80
2022-10-15T14:14:44.376Z,88.90
2022-10-15T14:17:51.156Z,89.10
2022-10-15T14:20:53.345Z,89.20
2022-10-15T14:24:03.324Z,89.10
2022-10-15T14:27:15.560Z,89.30
2022-10-15T14:30:31.945Z,89.40
2022-10-15T14:33:33.782Z,89.80
2022-10-15T14:36:42.501Z,89.70
2022-10-15T14:39:48.246Z,89.80
2022-10-15T14:43:05.371Z,89.90
2022-10-15T14:46:17.689Z,89.60
2022-10-15T14:49:27.535Z,90.00
2022-10-15T14:52:29.644Z,90.10
2022-10-15T14:55:41.687Z,90.50
2022-10-15T14:58:54.718Z,90.10
2022-10-15T15:02:02.742Z,90.40
2022-10-15T15:05:20.196Z,90.60
2022-10-15T15:08:23.426Z,90.20
2022-10-15T15:11:25.834Z,90.60
2022-10-15T15:14:27.785Z,90.70
2022-10-15T15:17:31.044Z,90.60
2022-10-15T15:20:32.970Z,90.70
2022-10-15T15:23:35.460Z,90.60
2022-10-15T15:26:37.386Z,90.80
2022-10-15T15:29:39.362Z,90.80
2022-10-15T15:32:41.489Z,90.90
2022-10-15T15:35:48.034Z,91.00
2022-10-15T15:38:51.601Z,90.90
2022-10-15T15:41:53.661Z,90.80
2022-10-15T15:44:58.038Z,90.50
2022-10-15T15:47:59.960Z,90.40
2022-10-15T15:51:13.040Z,90.00
2022-10-15T15:54:14.925Z,89.80
2022-10-15T15:57:16.823Z,89.90
2022-10-15T16:00:19.414Z,89.40
2022-10-15T16:03:21.247Z,88.50
2022-10-15T16:06:23.168Z,88.50
2022-10-15T16:09:27.169Z,88.20
2022-10-15T16:12:29.033Z,88.40
2022-10-15T16:15:30.934Z,88.60
2022-10-15T16:18:32.804Z,88.60
2022-10-15T16:21:34.845Z,89.30
2022-10-15T16:24:36.818Z,89.50
2022-10-15T16:27:38.660Z,89.60
2022-10-15T16:30:40.538Z,89.40
2022-10-15T16:33:42.457Z,89.80
2022-10-15T16:36:44.321Z,89.60
2022-10-15T16:39:46.122Z,90.40
2022-10-15T16:42:54.118Z,90.50
2022-10-15T16:45:59.838Z,90.70
2022-10-15T16:49:02.006Z,90.90
2022-10-15T16:52:04.104Z,91.00
2022-10-15T16:55:06.504Z,90.90
2022-10-15T16:58:08.336Z,90.90
2022-10-15T17:01:16.575Z,90.80
2022-10-15T17:04:18.449Z,90.90
2022-10-15T17:07:20.323Z,91.00
2022-10-15T17:10:22.263Z,90.80
2022-10-15T17:13:24.289Z,91.00
2022-10-15T17:16:28.205Z,90.70
2022-10-15T17:19:33.275Z,90.80
2022-10-15T17:22:36.342Z,90.80
2022-10-15T17:25:38.238Z,91.00
2022-10-15T17:28:41.013Z,90.60
2022-10-15T17:31:42.838Z,90.80
2022-10-15T17:34:44.667Z,90.70
2022-10-15T17:37:46.540Z,90.50
2022-10-15T17:40:48.782Z,90.70
2022-10-15T17:43:50.561Z,90.50
2022-10-15T17:46:52.849Z,90.50
2022-10-15T17:50:01.859Z,90.70
2022-10-15T17:53:03.755Z,90.70
2022-10-15T17:56:17.520Z,90.50
2022-10-15T17:59:20.511Z,90.50
2022-10-15T18:02:22.457Z,90.40
2022-10-15T18:05:26.839Z,90.60
2022-10-15T18:08:28.767Z,90.60
2022-10-15T18:11:33.258Z,90.70
2022-10-15T18:14:35.166Z,90.50
2022-10-15T18:17:37.148Z,90.30
2022-10-15T18:20:43.997Z,90.30
2022-10-15T18:23:46.244Z,90.10
2022-10-15T18:26:48.009Z,89.80
2022-10-15T18:29:49.909Z,89.90
2022-10-15T18:32:53.280Z,89.40
2022-10-15T18:36:09.341Z,89.40
2022-10-15T18:39:11.748Z,89.00
2022-10-15T18:42:13.669Z,89.20
2022-10-15T18:45:15.637Z,89.00
2022-10-15T18:48:29.333Z,88.50
2022-10-15T18:51:34.005Z,88.50
2022-10-15T18:54:36.421Z,88.60
2022-10-15T18:57:38.272Z,88.50
2022-10-15T19:00:40.189Z,88.70
2022-10-15T19:03:43.343Z,88.30
2022-10-15T19:06:47.519Z,88.40
2022-10-15T19:09:49.407Z,88.60
2022-10-15T19:12:53.891Z,89.30
2022-10-15T19:15:59.817Z,89.30
2022-10-15T19:19:02.499Z,89.30
2022-10-15T19:22:04.640Z,89.20
2022-10-15T19:25:06.982Z,88.80
2022-10-15T19:28:09.024Z,88.30
2022-10-15T19:31:18.358Z,88.40
2022-10-15T19:34:20.166Z,88.60
2022-10-15T19:37:22.272Z,88.70
2022-10-15T19:40:24.341Z,88.70
2022-10-15T19:43:26.199Z,88.00
2022-10-15T19:46:28.086Z,88.20
2022-10-15T19:49:30.129Z,88.00
2022-10-15T19:52:31.967Z,88.60
2022-10-15T19:55:34.177Z,88.70
2022-10-15T19:58:36.409Z,88.50
2022-10-15T20:01:40.233Z,88.90
2022-10-15T20:04:42.122Z,88.60
2022-10-15T20:07:44.039Z,88.40
2022-10-15T20:10:49.207Z,88.40
2022-10-15T20:13:51.955Z,88.40
2022-10-15T20:16:53.887Z,88.20
2022-10-15T20:19:55.901Z,87.80
2022-10-15T20:23:00.030Z,88.00
2022-10-15T20:26:05.670Z,87.70
2022-10-15T20:29:07.588Z,87.40
2022-10-15T20:32:11.327Z,87.80
2022-10-15T20:35:25.382Z,87.40
2022-10-15T20:38:27.201Z,87.80
2022-10-15T20:41:29.182Z,87.50
2022-10-15T20:44:31.013Z,88.10
2022-10-15T20:47:34.643Z,87.80
2022-10-15T20:50:36.567Z,87.80
2022-10-15T20:53:38.442Z,87.90
2022-10-15T20:56:41.010Z,87.80
2022-10-15T20:59:42.949Z,87.30
2022-10-15T21:02:44.931Z,87.80
2022-10-15T21:05:46.808Z,88.10
2022-10-15T21:08:48.992Z,87.80
2022-10-15T21:11:51.028Z,87.70
2022-10-15T21:14:54.687Z,87.80
2022-10-15T21:17:57.770Z,87.70
2022-10-15T21:21:08.062Z,88.10
2022-10-15T21:24:10.070Z,88.10
2022-10-15T21:27:14.611Z,87.70
2022-10-15T21:30:16.663Z,88.40
2022-10-15T21:33:18.733Z,88.40
2022-10-15T21:36:22.335Z,88.50
2022-10-15T21:39:26.682Z,88.80
2022-10-15T21:42:30.152Z,88.90
2022-10-15T21:45:32.255Z,88.90
2022-10-15T21:48:34.712Z,89.30
2022-10-15T21:51:39.006Z,88.80
2022-10-15T21:54:40.905Z,89.40
2022-10-15T21:57:42.742Z,88.60
2022-10-15T22:00:44.766Z,87.80
2022-10-15T22:03:46.792Z,87.50
2022-10-15T22:06:48.683Z,87.40
2022-10-15T22:09:50.632Z,87.50
2022-10-15T22:12:52.825Z,87.40
2022-10-15T22:15:54.607Z,87.60
2022-10-15T22:18:57.199Z,87.80
2022-10-15T22:21:59.104Z,87.50
2022-10-15T22:25:01.018Z,87.60
2022-10-15T22:28:03.222Z,87.30
2022-10-15T22:31:09.354Z,87.60
2022-10-15T22:34:11.519Z,87.80
2022-10-15T22:37:13.534Z,87.40
2022-10-15T22:40:15.653Z,87.10
2022-10-15T22:43:17.985Z,87.20
2022-10-15T22:46:19.949Z,87.30
2022-10-15T22:49:22.468Z,87.30
2022-10-15T22:52:24.847Z,87.60
2022-10-15T22:55:27.317Z,87.60
2022-10-15T22:58:30.185Z,87.60
2022-10-15T23:01:33.134Z,87.30
2022-10-15T23:04:35.152Z,87.50
2022-10-15T23:07:37.050Z,87.30
2022-10-15T23:10:38.880Z,87.20
2022-10-15T23:13:41.711Z,87.50
2022-10-15T23:16:45.864Z,88.50
2022-10-15T23:19:49.054Z,88.00
2022-10-15T23:22:50.885Z,88.20
2022-10-15T23:25:52.732Z,88.00
2022-10-15T23:28:56.914Z,88.10
2022-10-15T23:31:58.779Z,87.90
2022-10-15T23:35:00.952Z,87.80
2022-10-15T23:38:02.866Z,88.00
2022-10-15T23:41:07.154Z,87.80
2022-10-15T23:44:09.433Z,88.10
2022-10-15T23:47:11.525Z,88.30
2022-10-15T23:50:14.058Z,88.50
2022-10-15T23:53:16.192Z,89.10
2022-10-15T23:56:18.816Z,89.00
2022-10-15T23:59:20.800Z,89.30
